Time;durP1;ratioP1;P1;durP2;ratioP2;P2;SDS_P1;SDS_P2;PMS_P1;PMS_P2;Temp;Humidity;BMP_temperature;BMP_pressure;BME280_temperature;BME280_humidity;BME280_pressure;Samples;Min_cycle;Max_cycle;Signal;HPM_P1;HPM_P2
2023/03/16 00:04:46;;;;;;;27.00;12.30;;;;;;;;;;10487718;28;20497;-78
2023/03/16 00:10:07;;;;;;;30.50;13.15;;;;;;;;;;10471960;28;20083;-78
2023/03/16 00:15:28;;;;;;;17.73;11.23;;;;;;;;;;10497602;28;20039;-78
2023/03/16 00:20:54;;;;;;;20.15;10.93;;;;;;;;;;10490770;28;20039;-78
2023/03/16 00:26:15;;;;;;;16.48;11.07;;;;;;;;;;10501379;28;20043;-77
2023/03/16 00:31:36;;;;;;;13.63;10.65;;;;;;;;;;10544523;28;20043;-78
2023/03/16 00:36:57;;;;;;;19.05;10.73;;;;;;;;;;10498730;28;20377;-78
2023/03/16 00:42:18;;;;;;;14.98;10.30;;;;;;;;;;10508229;28;20036;-78
2023/03/16 00:47:41;;;;;;;19.38;11.38;;;;;;;;;;10509456;28;20036;-77
2023/03/16 00:53:01;;;;;;;18.30;10.70;;;;;;;;;;10488631;28;20048;-78
2023/03/16 00:58:23;;;;;;;30.13;12.85;;;;;;;;;;10468407;28;20528;-78
2023/03/16 01:03:44;;;;;;;27.02;12.65;;;;;;;;;;10462967;28;21413;-78
2023/03/16 01:09:05;;;;;;;32.00;13.30;;;;;;;;;;10471853;28;20045;-78
2023/03/16 01:14:26;;;;;;;31.48;12.88;;;;;;;;;;10470105;28;20738;-77
2023/03/16 01:19:47;;;;;;;29.42;13.68;;;;;;;;;;10483267;28;20033;-77
2023/03/16 01:25:09;;;;;;;30.48;12.43;;;;;;;;;;10480173;28;20043;-78
2023/03/16 01:30:30;;;;;;;30.77;13.10;;;;;;;;;;10497092;28;20715;-78
2023/03/16 01:35:52;;;;;;;31.63;13.93;;;;;;;;;;10487336;28;20032;-78
2023/03/16 01:41:14;;;;;;;26.52;12.48;;;;;;;;;;10493455;28;20055;-78
2023/03/16 01:46:35;;;;;;;29.50;13.70;;;;;;;;;;10486574;28;20047;-77
2023/03/16 01:52:02;;;;;;;31.67;13.07;;;;;;;;;;10488135;28;20056;-77
2023/03/16 01:57:29;;;;;;;32.63;13.88;;;;;;;;;;10478764;28;20033;-78
2023/03/16 02:03:03;;;;;;;26.65;12.68;;;;;;;;;;10475481;28;20695;-78
2023/03/16 02:08:25;;;;;;;28.25;12.75;;;;;;;;;;10484359;28;20682;-78
2023/03/16 02:13:47;;;;;;;33.40;13.55;;;;;;;;;;10497232;28;20024;-77
2023/03/16 02:19:12;;;;;;;16.48;10.52;;;;;;;;;;10495087;28;20031;-78
2023/03/16 02:24:34;;;;;;;31.42;13.85;;;;;;;;;;10480358;28;20408;-78
2023/03/16 02:29:55;;;;;;;29.75;13.13;;;;;;;;;;10497451;28;20051;-78
2023/03/16 02:35:16;;;;;;;;;;;;;;;;;;10513618;28;20069;-77
2023/03/16 02:40:37;;;;;;;19.98;11.07;;;;;;;;;;10506040;28;19954;-77
2023/03/16 02:46:02;;;;;;;25.25;12.82;;;;;;;;;;10500911;28;20405;-77
2023/03/16 02:51:23;;;;;;;24.58;13.25;;;;;;;;;;10504052;28;20063;-77
2023/03/16 02:56:44;;;;;;;24.80;11.50;;;;;;;;;;10524629;28;20041;-77
2023/03/16 03:02:05;;;;;;;31.65;12.88;;;;;;;;;;10487970;28;20079;-77
2023/03/16 03:07:30;;;;;;;23.35;11.40;;;;;;;;;;10498876;28;20024;-77
2023/03/16 03:12:51;;;;;;;25.75;12.02;;;;;;;;;;10514029;28;20777;-77
2023/03/16 03:18:13;;;;;;;16.67;11.40;;;;;;;;;;10498400;28;20039;-77
2023/03/16 03:23:34;;;;;;;14.82;9.70;;;;;;;;;;10522046;28;20044;-76
2023/03/16 03:28:55;;;;;;;17.30;10.05;;;;;;;;;;10507936;28;20055;-77
2023/03/16 03:34:16;;;;;;;21.88;11.38;;;;;;;;;;10535627;28;20389;-74
2023/03/16 03:39:39;;;;;;;25.50;11.70;;;;;;;;;;10503311;28;20028;-75
2023/03/16 03:45:00;;;;;;;21.27;10.70;;;;;;;;;;10519910;28;20036;-74
2023/03/16 03:50:21;;;;;;;21.65;11.35;;;;;;;;;;10497789;28;20028;-74
2023/03/16 03:55:42;;;;;;;17.08;10.38;;;;;;;;;;10521368;28;20405;-76
2023/03/16 04:01:02;;;;;;;16.88;10.55;;;;;;;;;;10503146;28;20496;-76
2023/03/16 04:06:23;;;;;;;22.88;11.82;;;;;;;;;;10491009;28;20035;-76
2023/03/16 04:11:44;;;;;;;24.00;11.77;;;;;;;;;;10497937;28;20043;-77
2023/03/16 04:17:06;;;;;;;23.98;10.93;;;;;;;;;;10483383;28;20035;-76
2023/03/16 04:22:29;;;;;;;25.65;12.10;;;;;;;;;;10483583;28;20028;-77
2023/03/16 04:27:50;;;;;;;22.00;10.88;;;;;;;;;;10500111;28;20043;-76
2023/03/16 04:33:11;;;;;;;29.95;12.43;;;;;;;;;;10480726;28;20040;-76
2023/03/16 04:38:35;;;;;;;24.10;10.27;;;;;;;;;;10501521;28;20028;-77
2023/03/16 04:43:57;;;;;;;23.52;11.20;;;;;;;;;;10488234;28;20040;-76
2023/03/16 04:49:18;;;;;;;17.13;9.98;;;;;;;;;;10488985;28;20040;-76
2023/03/16 04:54:39;;;;;;;20.42;10.68;;;;;;;;;;10483733;28;20065;-76
2023/03/16 05:00:00;;;;;;;19.45;10.65;;;;;;;;;;10477697;28;20029;-76
2023/03/16 05:05:21;;;;;;;18.25;10.70;;;;;;;;;;10468627;28;20512;-76
2023/03/16 05:10:43;;;;;;;21.35;11.40;;;;;;;;;;10511971;28;20036;-76
2023/03/16 05:16:04;;;;;;;25.15;12.00;;;;;;;;;;10514385;28;20044;-76
2023/03/16 05:21:25;;;;;;;24.02;11.35;;;;;;;;;;10498560;28;20028;-76
2023/03/16 05:26:46;;;;;;;18.58;10.32;;;;;;;;;;10506049;28;20032;-76
2023/03/16 05:32:07;;;;;;;17.55;9.82;;;;;;;;;;10519617;28;20039;-76
2023/03/16 05:37:28;;;;;;;20.50;10.23;;;;;;;;;;10504633;28;20093;-77
2023/03/16 05:42:53;;;;;;;31.48;13.05;;;;;;;;;;10515063;28;20687;-76
2023/03/16 05:48:14;;;;;;;23.73;10.95;;;;;;;;;;10503895;28;20032;-77
2023/03/16 05:53:35;;;;;;;25.70;12.43;;;;;;;;;;10501297;28;20406;-76
2023/03/16 05:58:56;;;;;;;20.63;10.65;;;;;;;;;;10501022;28;20040;-76
2023/03/16 06:04:16;;;;;;;27.35;11.32;;;;;;;;;;10492691;28;20040;-76
2023/03/16 06:09:37;;;;;;;27.92;12.93;;;;;;;;;;10489542;28;20420;-76
2023/03/16 06:14:58;;;;;;;15.55;9.70;;;;;;;;;;10513983;28;20089;-76
2023/03/16 06:20:19;;;;;;;25.95;11.50;;;;;;;;;;10497482;28;20477;-77
2023/03/16 06:25:40;;;;;;;18.92;10.75;;;;;;;;;;10507320;28;20036;-76
2023/03/16 06:31:01;;;;;;;21.33;10.18;;;;;;;;;;10503049;28;20067;-77
2023/03/16 06:36:22;;;;;;;16.70;10.13;;;;;;;;;;10515110;28;20036;-76
2023/03/16 06:41:43;;;;;;;13.77;8.95;;;;;;;;;;10502829;28;20032;-76
2023/03/16 06:47:04;;;;;;;16.80;9.82;;;;;;;;;;10507454;28;20028;-74
2023/03/16 06:52:25;;;;;;;20.45;10.07;;;;;;;;;;10511806;28;20053;-74
2023/03/16 06:57:46;;;;;;;29.25;12.65;;;;;;;;;;10483719;28;20037;-74
2023/03/16 07:03:07;;;;;;;33.70;13.68;;;;;;;;;;10490263;28;20028;-73
2023/03/16 07:08:28;;;;;;;24.63;12.00;;;;;;;;;;10492967;28;20024;-74
2023/03/16 07:13:49;;;;;;;16.85;9.75;;;;;;;;;;10498214;28;20048;-73
2023/03/16 07:19:10;;;;;;;19.63;10.82;;;;;;;;;;10499271;28;20461;-74
2023/03/16 07:24:31;;;;;;;19.73;10.27;;;;;;;;;;10492091;28;20032;-74
2023/03/16 07:29:52;;;;;;;15.80;9.13;;;;;;;;;;10518966;28;20036;-74
2023/03/16 07:35:13;;;;;;;27.33;12.10;;;;;;;;;;10506627;28;20039;-74
2023/03/16 07:40:34;;;;;;;19.02;10.52;;;;;;;;;;10480975;28;20024;-74
2023/03/16 07:45:55;;;;;;;31.35;13.38;;;;;;;;;;10489933;28;20044;-74
2023/03/16 07:51:16;;;;;;;20.63;10.52;;;;;;;;;;10496745;28;20036;-74
2023/03/16 07:56:37;;;;;;;28.35;11.52;;;;;;;;;;10494616;28;20036;-74
2023/03/16 08:01:58;;;;;;;16.17;10.05;;;;;;;;;;10507722;28;20769;-74
2023/03/16 08:07:19;;;;;;;24.23;11.25;;;;;;;;;;10492274;28;20028;-74
2023/03/16 08:12:40;;;;;;;22.50;11.40;;;;;;;;;;10470901;28;20044;-74
2023/03/16 08:18:01;;;;;;;19.92;9.93;;;;;;;;;;10471623;28;20032;-75
2023/03/16 08:23:23;;;;;;;20.00;11.13;;;;;;;;;;10501310;28;20040;-76
2023/03/16 08:28:44;;;;;;;25.30;11.48;;;;;;;;;;10494326;28;20402;-75
2023/03/16 08:34:05;;;;;;;23.67;10.27;;;;;;;;;;10498439;28;20036;-75
2023/03/16 08:39:27;;;;;;;15.52;10.27;;;;;;;;;;10533501;27;20047;-75
2023/03/16 08:44:51;;;;;;;17.08;10.32;;;;;;;;;;10522031;28;20055;-76
2023/03/16 08:50:12;;;;;;;16.80;9.48;;;;;;;;;;10504197;28;20035;-75
2023/03/16 08:55:34;;;;;;;21.25;10.75;;;;;;;;;;10518315;28;20048;-75
2023/03/16 09:00:55;;;;;;;26.27;12.43;;;;;;;;;;10527255;28;20040;-75
2023/03/16 09:06:16;;;;;;;16.02;9.82;;;;;;;;;;10501618;28;20819;-75
2023/03/16 09:11:37;;;;;;;17.42;9.05;;;;;;;;;;10526606;28;20031;-75
2023/03/16 09:16:58;;;;;;;13.75;7.43;;;;;;;;;;10532450;28;20603;-75
2023/03/16 09:22:19;;;;;;;17.73;9.30;;;;;;;;;;10511856;28;20058;-76
2023/03/16 09:27:41;;;;;;;16.17;9.10;;;;;;;;;;10513330;28;20040;-75
2023/03/16 09:33:03;;;;;;;12.57;8.27;;;;;;;;;;10528744;28;20035;-75
2023/03/16 09:38:25;;;;;;;15.00;8.45;;;;;;;;;;10509160;28;20035;-75
2023/03/16 09:43:52;;;;;;;12.95;8.43;;;;;;;;;;10522078;28;20123;-76
2023/03/16 09:49:23;;;;;;;16.13;8.85;;;;;;;;;;10524434;28;20039;-76
2023/03/16 09:54:46;;;;;;;12.30;7.60;;;;;;;;;;10535148;28;20048;-76
2023/03/16 10:00:14;;;;;;;12.43;8.23;;;;;;;;;;10528146;28;20421;-75
2023/03/16 10:05:37;;;;;;;14.70;8.18;;;;;;;;;;10531358;28;20032;-75
2023/03/16 10:10:58;;;;;;;14.02;8.52;;;;;;;;;;10527638;28;20045;-76
2023/03/16 10:16:21;;;;;;;17.08;10.57;;;;;;;;;;10527366;28;20040;-76
2023/03/16 10:21:42;;;;;;;16.15;8.85;;;;;;;;;;10524410;28;20020;-76
2023/03/16 10:27:05;;;;;;;15.80;8.20;;;;;;;;;;10539038;28;20094;-76
2023/03/16 10:32:30;;;;;;;18.45;8.93;;;;;;;;;;10542833;28;20067;-76
2023/03/16 10:37:51;;;;;;;10.27;7.38;;;;;;;;;;10517303;28;20043;-76
2023/03/16 10:43:13;;;;;;;15.77;7.65;;;;;;;;;;10511074;28;20020;-76
2023/03/16 10:48:34;;;;;;;11.75;7.65;;;;;;;;;;10525123;28;20025;-76
2023/03/16 10:54:15;;;;;;;11.65;7.55;;;;;;;;;;10528847;28;20044;-76
2023/03/16 10:59:37;;;;;;;8.45;6.60;;;;;;;;;;10515029;28;20048;-76
2023/03/16 11:04:58;;;;;;;12.75;7.22;;;;;;;;;;10516690;28;20043;-76
2023/03/16 11:10:36;;;;;;;12.23;6.93;;;;;;;;;;10534827;28;20032;-76
2023/03/16 11:16:16;;;;;;;11.52;7.05;;;;;;;;;;10515199;28;20465;-75
2023/03/16 11:21:43;;;;;;;14.10;7.20;;;;;;;;;;10528510;28;20043;-76
2023/03/16 11:27:09;;;;;;;13.18;6.97;;;;;;;;;;10507672;28;20037;-76
2023/03/16 11:32:40;;;;;;;10.55;6.63;;;;;;;;;;10504908;28;20029;-76
2023/03/16 11:38:12;;;;;;;10.02;6.53;;;;;;;;;;10538898;27;20031;-76
2023/03/16 11:43:36;;;;;;;22.48;8.65;;;;;;;;;;10533551;28;20393;-75
2023/03/16 11:49:16;;;;;;;11.00;6.38;;;;;;;;;;10509765;28;20043;-76
2023/03/16 11:54:40;;;;;;;23.33;9.30;;;;;;;;;;10490678;28;20058;-74
2023/03/16 12:00:07;;;;;;;19.13;7.68;;;;;;;;;;10491289;28;20468;-73
2023/03/16 12:05:43;;;;;;;16.98;8.13;;;;;;;;;;10529267;27;20043;-73
2023/03/16 12:11:06;;;;;;;19.83;8.25;;;;;;;;;;10504342;28;20035;-73
2023/03/16 12:16:33;;;;;;;11.90;6.45;;;;;;;;;;10504121;28;20043;-73
2023/03/16 12:22:17;;;;;;;10.77;6.05;;;;;;;;;;10495688;28;20028;-73
2023/03/16 12:27:40;;;;;;;13.07;6.45;;;;;;;;;;10528688;28;20106;-73
2023/03/16 12:33:10;;;;;;;8.98;5.85;;;;;;;;;;10494531;28;20048;-74
2023/03/16 12:38:43;;;;;;;9.98;6.68;;;;;;;;;;10508450;28;20032;-79
2023/03/16 12:44:14;;;;;;;7.13;5.68;;;;;;;;;;10534132;28;20040;-76
2023/03/16 12:49:35;;;;;;;9.73;5.13;;;;;;;;;;10522936;28;20036;-76
2023/03/16 12:55:15;;;;;;;9.10;4.80;;;;;;;;;;10485164;28;20043;-76
2023/03/16 13:00:39;;;;;;;8.77;5.07;;;;;;;;;;10524216;28;20074;-76
2023/03/16 13:06:02;;;;;;;9.10;5.38;;;;;;;;;;10515984;28;20028;-76
2023/03/16 13:11:23;;;;;;;10.60;5.03;;;;;;;;;;10525630;28;20059;-77
2023/03/16 13:16:46;;;;;;;11.35;5.05;;;;;;;;;;10513912;28;20036;-77
2023/03/16 13:22:16;;;;;;;13.00;6.18;;;;;;;;;;10504727;28;20047;-77
2023/03/16 13:27:38;;;;;;;9.47;4.80;;;;;;;;;;10550239;28;20036;-75
2023/03/16 13:33:03;;;;;;;10.52;5.07;;;;;;;;;;10488015;28;20412;-75
2023/03/16 13:38:29;;;;;;;7.63;4.82;;;;;;;;;;10521663;28;20041;-75
2023/03/16 13:43:50;;;;;;;7.03;4.40;;;;;;;;;;10503208;28;20039;-75
2023/03/16 13:49:11;;;;;;;5.80;4.05;;;;;;;;;;10511217;28;20035;-77
2023/03/16 13:54:36;;;;;;;9.52;4.57;;;;;;;;;;10524850;27;20068;-75
2023/03/16 14:00:01;;;;;;;13.32;5.60;;;;;;;;;;10500249;28;20489;-75
2023/03/16 14:05:27;;;;;;;8.10;4.65;;;;;;;;;;10509846;28;20039;-75
2023/03/16 14:10:49;;;;;;;7.57;4.50;;;;;;;;;;10529446;28;20063;-75
2023/03/16 14:16:17;;;;;;;7.03;4.55;;;;;;;;;;10531324;28;20036;-75
2023/03/16 14:21:42;;;;;;;9.55;5.47;;;;;;;;;;10502668;28;20036;-76
2023/03/16 14:27:15;;;;;;;7.60;4.38;;;;;;;;;;10526574;28;20039;-75
2023/03/16 14:32:37;;;;;;;8.10;4.95;;;;;;;;;;10494256;28;20036;-75
2023/03/16 14:38:17;;;;;;;7.15;4.57;;;;;;;;;;10525500;28;20051;-75
2023/03/16 14:43:56;;;;;;;7.00;4.13;;;;;;;;;;10520833;28;20036;-76
2023/03/16 14:49:19;;;;;;;8.75;4.57;;;;;;;;;;10510685;28;20032;-76
2023/03/16 14:54:40;;;;;;;10.27;4.60;;;;;;;;;;10543490;28;20048;-76
2023/03/16 15:00:03;;;;;;;11.55;4.78;;;;;;;;;;10541678;28;20062;-76
2023/03/16 15:05:44;;;;;;;8.48;4.90;;;;;;;;;;10538741;28;20489;-74
2023/03/16 15:11:05;;;;;;;9.40;4.70;;;;;;;;;;10510639;28;20035;-75
2023/03/16 15:16:26;;;;;;;8.55;4.70;;;;;;;;;;10511740;28;20798;-76
2023/03/16 15:21:47;;;;;;;8.30;4.57;;;;;;;;;;10535561;28;20086;-76
2023/03/16 15:27:16;;;;;;;8.55;4.93;;;;;;;;;;10529130;28;20044;-75
2023/03/16 15:32:37;;;;;;;9.48;4.55;;;;;;;;;;10502053;28;20032;-76
2023/03/16 15:37:59;;;;;;;7.15;5.03;;;;;;;;;;10531073;28;20048;-76
2023/03/16 15:43:21;;;;;;;9.18;5.13;;;;;;;;;;10516580;28;20032;-75
2023/03/16 15:48:43;;;;;;;8.60;4.78;;;;;;;;;;10528579;28;20054;-76
2023/03/16 15:54:05;;;;;;;10.90;5.82;;;;;;;;;;10503509;28;20059;-76
2023/03/16 15:59:30;;;;;;;11.32;5.72;;;;;;;;;;10529643;28;20036;-76
2023/03/16 16:04:51;;;;;;;7.75;5.05;;;;;;;;;;10514284;28;20382;-76
2023/03/16 16:10:13;;;;;;;9.57;5.00;;;;;;;;;;10522039;28;20036;-76
2023/03/16 16:15:35;;;;;;;7.00;4.50;;;;;;;;;;10498984;28;20028;-76
2023/03/16 16:20:58;;;;;;;11.10;5.28;;;;;;;;;;10517450;28;20035;-76
2023/03/16 16:26:25;;;;;;;10.80;5.68;;;;;;;;;;10511364;28;20031;-76
2023/03/16 16:31:46;;;;;;;9.48;4.78;;;;;;;;;;10503307;28;20505;-75
2023/03/16 16:37:08;;;;;;;8.25;5.18;;;;;;;;;;10511146;28;20036;-76
2023/03/16 16:42:29;;;;;;;15.18;6.32;;;;;;;;;;10510800;28;20058;-75
2023/03/16 16:47:51;;;;;;;10.45;5.15;;;;;;;;;;10516918;28;20024;-76
2023/03/16 16:53:17;;;;;;;9.80;5.45;;;;;;;;;;10515199;28;20059;-76
2023/03/16 16:58:39;;;;;;;8.55;5.28;;;;;;;;;;10523778;28;20040;-76
2023/03/16 17:04:01;;;;;;;9.60;5.53;;;;;;;;;;10498247;28;20028;-75
2023/03/16 17:09:22;;;;;;;11.05;6.00;;;;;;;;;;10541930;28;20397;-75
2023/03/16 17:14:43;;;;;;;13.43;6.47;;;;;;;;;;10525427;28;20043;-76
2023/03/16 17:20:06;;;;;;;10.68;6.82;;;;;;;;;;10516728;28;20043;-76
2023/03/16 17:25:27;;;;;;;16.17;8.05;;;;;;;;;;10543329;28;20036;-76
2023/03/16 17:30:48;;;;;;;17.02;7.93;;;;;;;;;;10506289;28;20047;-76
2023/03/16 17:36:13;;;;;;;12.82;6.00;;;;;;;;;;10525607;28;20048;-76
2023/03/16 17:41:34;;;;;;;13.30;6.20;;;;;;;;;;10506560;28;20053;-75
2023/03/16 17:46:55;;;;;;;12.80;6.25;;;;;;;;;;10535046;28;20036;-75
2023/03/16 17:52:17;;;;;;;24.58;8.55;;;;;;;;;;10521152;28;20051;-75
2023/03/16 17:57:38;;;;;;;23.55;8.82;;;;;;;;;;10501906;28;20059;-77
2023/03/16 18:03:08;;;;;;;20.15;8.13;;;;;;;;;;10483112;28;20032;-77
2023/03/16 18:08:32;;;;;;;17.60;7.80;;;;;;;;;;10477284;28;20625;-78
2023/03/16 18:13:53;;;;;;;14.75;6.78;;;;;;;;;;10507877;28;20055;-78
2023/03/16 18:19:24;;;;;;;31.45;11.05;;;;;;;;;;10493404;28;20071;-76
2023/03/16 18:24:45;;;;;;;16.57;7.90;;;;;;;;;;10490096;28;20405;-77
2023/03/16 18:30:07;;;;;;;13.93;7.43;;;;;;;;;;10506239;28;20059;-78
2023/03/16 18:35:28;;;;;;;21.58;9.25;;;;;;;;;;10504968;28;20036;-77
2023/03/16 18:40:49;;;;;;;14.30;7.65;;;;;;;;;;10512829;28;20036;-78
2023/03/16 18:46:26;;;;;;;17.02;7.72;;;;;;;;;;10521814;28;20024;-77
2023/03/16 18:51:49;;;;;;;16.20;8.38;;;;;;;;;;10509331;28;20036;-78
2023/03/16 18:57:15;;;;;;;18.30;8.95;;;;;;;;;;10510432;28;20039;-79
2023/03/16 19:02:40;;;;;;;16.48;7.75;;;;;;;;;;10516578;27;20031;-77
2023/03/16 19:08:03;;;;;;;20.48;8.75;;;;;;;;;;10515604;28;20040;-77
2023/03/16 19:13:25;;;;;;;16.42;8.25;;;;;;;;;;10491843;28;20649;-78
2023/03/16 19:18:46;;;;;;;20.55;9.57;;;;;;;;;;10499247;28;20047;-77
2023/03/16 19:24:08;;;;;;;17.23;7.93;;;;;;;;;;10507629;28;20450;-77
2023/03/16 19:29:33;;;;;;;19.25;8.50;;;;;;;;;;10514702;27;20028;-77
2023/03/16 19:34:54;;;;;;;14.13;7.45;;;;;;;;;;10488433;28;20194;-78
2023/03/16 19:40:16;;;;;;;16.42;8.50;;;;;;;;;;10497913;28;20020;-78
2023/03/16 19:45:38;;;;;;;20.77;8.60;;;;;;;;;;10503099;28;20028;-78
2023/03/16 19:50:59;;;;;;;18.02;8.18;;;;;;;;;;10504630;28;20063;-76
2023/03/16 19:56:20;;;;;;;15.85;7.93;;;;;;;;;;10512835;28;20059;-76
2023/03/16 20:01:41;;;;;;;13.30;7.85;;;;;;;;;;10511320;28;20396;-76
2023/03/16 20:07:05;;;;;;;15.48;7.90;;;;;;;;;;10512268;28;20042;-76
2023/03/16 20:12:27;;;;;;;12.95;6.32;;;;;;;;;;10493169;28;20062;-76
2023/03/16 20:17:48;;;;;;;9.90;6.70;;;;;;;;;;10502634;28;20505;-77
2023/03/16 20:23:28;;;;;;;14.85;8.10;;;;;;;;;;10491293;28;20032;-77
2023/03/16 20:28:49;;;;;;;14.88;7.80;;;;;;;;;;10480827;28;20048;-77
2023/03/16 20:34:20;;;;;;;24.27;9.63;;;;;;;;;;10501726;28;20043;-77
2023/03/16 20:39:41;;;;;;;27.67;10.57;;;;;;;;;;10459828;28;20044;-78
2023/03/16 20:45:12;;;;;;;16.63;8.35;;;;;;;;;;10489141;28;20433;-77
2023/03/16 20:50:33;;;;;;;13.07;8.35;;;;;;;;;;10522003;28;20046;-77
2023/03/16 20:55:55;;;;;;;13.27;7.85;;;;;;;;;;10504410;28;20051;-77
2023/03/16 21:01:20;;;;;;;14.70;8.52;;;;;;;;;;10514649;28;20024;-77
2023/03/16 21:06:43;;;;;;;28.20;10.85;;;;;;;;;;10473669;28;21523;-76
2023/03/16 21:12:06;;;;;;;15.93;9.07;;;;;;;;;;10484682;28;20043;-76
2023/03/16 21:17:31;;;;;;;12.82;8.25;;;;;;;;;;10521423;28;20040;-76
2023/03/16 21:22:52;;;;;;;15.23;8.88;;;;;;;;;;10500768;28;20508;-76
2023/03/16 21:28:13;;;;;;;16.50;8.52;;;;;;;;;;10501180;28;20044;-76
2023/03/16 21:33:36;;;;;;;13.95;8.43;;;;;;;;;;10490510;28;20028;-76
2023/03/16 21:38:56;;;;;;;25.13;10.48;;;;;;;;;;10477678;28;20598;-75
2023/03/16 21:44:18;;;;;;;19.55;9.90;;;;;;;;;;10509782;27;20600;-75
2023/03/16 21:49:40;;;;;;;16.42;8.50;;;;;;;;;;10498681;28;20027;-75
2023/03/16 21:55:01;;;;;;;18.33;9.27;;;;;;;;;;10494888;28;20040;-75
2023/03/16 22:00:23;;;;;;;19.08;8.63;;;;;;;;;;10481277;28;20036;-75
2023/03/16 22:05:44;;;;;;;21.73;9.50;;;;;;;;;;10504074;28;20618;-75
2023/03/16 22:11:12;;;;;;;10.52;7.43;;;;;;;;;;10509549;28;20035;-75
2023/03/16 22:16:34;;;;;;;11.45;7.13;;;;;;;;;;10508736;28;20033;-75
2023/03/16 22:21:56;;;;;;;16.95;8.48;;;;;;;;;;10521079;28;20402;-75
2023/03/16 22:27:20;;;;;;;37.90;12.38;;;;;;;;;;10482294;28;20078;-74
2023/03/16 22:32:41;;;;;;;30.25;11.35;;;;;;;;;;10491447;28;20043;-75
2023/03/16 22:38:05;;;;;;;31.40;11.55;;;;;;;;;;10484218;28;20032;-75
2023/03/16 22:43:29;;;;;;;32.72;11.68;;;;;;;;;;10470019;28;20040;-75
2023/03/16 22:48:51;;;;;;;17.45;9.02;;;;;;;;;;10462807;28;20528;-75
2023/03/16 22:54:14;;;;;;;31.73;11.50;;;;;;;;;;10498394;28;21199;-75
2023/03/16 22:59:35;;;;;;;20.17;8.98;;;;;;;;;;10472982;28;20039;-75
2023/03/16 23:04:56;;;;;;;25.88;10.63;;;;;;;;;;10480191;28;20032;-75
2023/03/16 23:10:20;;;;;;;19.00;9.00;;;;;;;;;;10494613;28;20029;-75
2023/03/16 23:15:42;;;;;;;22.73;10.90;;;;;;;;;;10527089;27;20051;-75
2023/03/16 23:21:03;;;;;;;14.55;8.45;;;;;;;;;;10512274;28;20033;-75
2023/03/16 23:26:25;;;;;;;21.75;9.88;;;;;;;;;;10505906;28;20039;-75
2023/03/16 23:31:46;;;;;;;12.80;8.00;;;;;;;;;;10506155;28;20031;-75
2023/03/16 23:37:07;;;;;;;21.90;9.48;;;;;;;;;;10505711;28;20055;-75
2023/03/16 23:42:28;;;;;;;32.05;11.90;;;;;;;;;;10473037;28;20047;-74
2023/03/16 23:47:50;;;;;;;26.77;10.05;;;;;;;;;;10456255;28;20051;-75
2023/03/16 23:53:12;;;;;;;10.90;7.45;;;;;;;;;;10493968;28;20052;-75
2023/03/16 23:58:33;;;;;;;26.08;10.77;;;;;;;;;;10472845;28;20063;-75
